Delta Virtual Airport Information Service

Cancun International Airport

ICAO: MMUN Country: Mexico
Latitude: 21.0365 Longitude: -86.877
Latest Arrival : NKS488 (2) (KIAH-MMUN) Latest Departure : AMX2966151 (MMUN-KMIA)


WX CaptureLIVE
Data provided by noaa.gov | Fetched at 09:37:18

METAR : MMUN 041346Z 04002KT 7SM FEW015 BKN250 28/28 A3000 RMK 8/108 MDT CU AC AS

TAF : MMUN 041242Z 0413/0518 08005KT 6SM HZ SCT015 BKN250 TX32/0419Z TN25/0413Z FM041800 13010KT 6SM HZ SCT015 SCT250 TEMPO 0419/0423 5SM TSRA BKN015CB FM050200 08005KT 6SM HZ SCT015 BKN250 FM051800 13010KT 6SM HZ SCT020 SCT250


Runway Data for MMUN
Data provided by openaviationdata.com

Runway ID Mag Var Hdg Length Elevation Surface ILS Freq ILS Id ILS Slope
12 2 121° 11497 ft 20 ft Asphalt 108.55 IABA 3
30 2 301° 11497 ft 20 ft Asphalt -- -- --

Cancun International Airport, Mexico
Use only for reference purposes



Not for navigational purposes.